Time;durP1;ratioP1;P1;durP2;ratioP2;P2;SDS_P1;SDS_P2;PMS_P1;PMS_P2;Temp;Humidity;BMP_temperature;BMP_pressure;BME280_temperature;BME280_humidity;BME280_pressure;Samples;Min_cycle;Max_cycle;Signal;HPM_P1;HPM_P2
2023/11/17 00:03:29;;;;;;;56.30;23.20;;;;;;;;;;103790;1289;545493;-69
2023/11/17 00:07:03;;;;;;;50.40;20.50;;;;;;;;;;103526;1300;545169;-70
2023/11/17 00:10:39;;;;;;;49.90;20.70;;;;;;;;;;103710;1289;545018;-70
2023/11/17 00:14:17;;;;;;;42.50;18.70;;;;;;;;;;103883;1288;544830;-70
2023/11/17 00:17:53;;;;;;;38.70;16.10;;;;;;;;;;104187;1289;544969;-69
2023/11/17 00:21:31;;;;;;;29.20;14.30;;;;;;;;;;103565;1293;545111;-71
2023/11/17 00:25:08;;;;;;;32.40;15.50;;;;;;;;;;103690;1292;544976;-69
2023/11/17 00:28:48;;;;;;;30.70;16.60;;;;;;;;;;103727;1292;544879;-69
2023/11/17 00:32:24;;;;;;;30.60;15.10;;;;;;;;;;103739;1292;545776;-67
2023/11/17 00:36:02;;;;;;;26.90;13.60;;;;;;;;;;103600;1289;545067;-71
2023/11/17 00:39:37;;;;;;;25.60;14.20;;;;;;;;;;103807;1289;544913;-71
2023/11/17 00:43:16;;;;;;;26.20;14.90;;;;;;;;;;103621;1289;545070;-70
2023/11/17 00:46:54;;;;;;;28.30;16.10;;;;;;;;;;103773;1291;544959;-70
2023/11/17 00:50:32;;;;;;;33.40;14.50;;;;;;;;;;103627;1291;545016;-72
2023/11/17 00:54:09;;;;;;;26.00;14.10;;;;;;;;;;103733;1292;544929;-71
2023/11/17 00:57:47;;;;;;;22.10;12.40;;;;;;;;;;103694;1298;544873;-69
2023/11/17 01:01:24;;;;;;;21.10;11.70;;;;;;;;;;103659;1292;545252;-72
2023/11/17 01:05:01;;;;;;;20.20;11.80;;;;;;;;;;103816;1291;545600;-71
2023/11/17 01:08:39;;;;;;;23.40;11.80;;;;;;;;;;103627;1289;544978;-71
2023/11/17 01:12:16;;;;;;;23.10;11.40;;;;;;;;;;103759;1292;545090;-70
2023/11/17 01:15:56;;;;;;;20.40;12.10;;;;;;;;;;103669;1288;545723;-70
2023/11/17 01:19:30;;;;;;;22.50;12.90;;;;;;;;;;103762;1289;544758;-71
2023/11/17 01:23:08;;;;;;;23.90;12.30;;;;;;;;;;103770;1289;545054;-71
2023/11/17 01:26:49;;;;;;;23.20;12.20;;;;;;;;;;103871;1287;545178;-70
2023/11/17 01:30:24;;;;;;;22.30;12.60;;;;;;;;;;103624;1292;544825;-71
2023/11/17 01:34:00;;;;;;;20.50;13.10;;;;;;;;;;103752;1288;545907;-69
2023/11/17 01:37:38;;;;;;;22.70;13.90;;;;;;;;;;103773;1289;544838;-70
2023/11/17 01:41:15;;;;;;;18.50;11.50;;;;;;;;;;103541;1295;545018;-70
2023/11/17 01:44:53;;;;;;;20.70;11.90;;;;;;;;;;103676;1289;545624;-70
2023/11/17 01:48:33;;;;;;;17.20;11.40;;;;;;;;;;103949;1288;545220;-68
2023/11/17 01:52:08;;;;;;;19.70;11.60;;;;;;;;;;103652;1289;545076;-69
2023/11/17 01:55:45;;;;;;;17.90;10.80;;;;;;;;;;103715;1290;545474;-69
2023/11/17 01:59:22;;;;;;;16.80;11.30;;;;;;;;;;103748;1289;545051;-70
2023/11/17 02:03:00;;;;;;;17.80;10.80;;;;;;;;;;103831;1288;545977;-70
2023/11/17 02:06:43;;;;;;;18.90;11.90;;;;;;;;;;103635;1289;546414;-71
2023/11/17 02:10:25;;;;;;;15.90;10.00;;;;;;;;;;103674;1295;545446;-70
2023/11/17 02:13:56;;;;;;;17.80;10.60;;;;;;;;;;103800;1294;545017;-70
2023/11/17 02:17:31;;;;;;;17.20;10.40;;;;;;;;;;103644;1298;545958;-69
2023/11/17 02:21:08;;;;;;;19.40;11.50;;;;;;;;;;104495;1282;546235;-70
2023/11/17 02:25:10;;;;;;;18.20;12.30;;;;;;;;;;103501;1295;545072;-68
2023/11/17 02:28:41;;;;;;;20.00;12.00;;;;;;;;;;103452;1298;544771;-69
2023/11/17 02:32:00;;;;;;;17.20;11.90;;;;;;;;;;103732;1289;544801;-70
2023/11/17 02:35:38;;;;;;;18.60;11.60;;;;;;;;;;103716;1289;544779;-70
2023/11/17 02:39:26;;;;;;;18.70;12.30;;;;;;;;;;103647;1289;546041;-71
2023/11/17 02:42:53;;;;;;;21.30;14.20;;;;;;;;;;103674;1292;544986;-69
2023/11/17 02:46:32;;;;;;;21.30;12.30;;;;;;;;;;103587;1292;545249;-70
2023/11/17 02:50:10;;;;;;;19.70;11.60;;;;;;;;;;103675;1292;545095;-68
2023/11/17 02:53:49;;;;;;;16.90;11.50;;;;;;;;;;103945;1289;545370;-69
2023/11/17 02:57:24;;;;;;;18.00;12.20;;;;;;;;;;103711;1293;546558;-71
2023/11/17 03:01:02;;;;;;;18.10;10.90;;;;;;;;;;103622;1289;544731;-70
2023/11/17 03:04:57;;;;;;;16.30;10.40;;;;;;;;;;103594;1291;547980;-70
2023/11/17 03:08:15;;;;;;;14.10;9.70;;;;;;;;;;103748;1292;546151;-69
2023/11/17 03:11:52;;;;;;;15.80;10.30;;;;;;;;;;103930;1289;545089;-70
2023/11/17 03:15:29;;;;;;;15.70;10.60;;;;;;;;;;103580;1291;544993;-69
2023/11/17 03:19:10;;;;;;;15.30;9.70;;;;;;;;;;103771;1289;545125;-72
2023/11/17 03:22:45;;;;;;;14.60;9.40;;;;;;;;;;103419;1294;545785;-71
2023/11/17 03:26:22;;;;;;;14.70;9.70;;;;;;;;;;103756;1292;544925;-70
2023/11/17 03:29:59;;;;;;;15.00;10.50;;;;;;;;;;104402;1283;546038;-68
2023/11/17 03:33:37;;;;;;;15.20;10.10;;;;;;;;;;103797;1289;544780;-70
2023/11/17 03:37:18;;;;;;;14.40;10.00;;;;;;;;;;104668;1282;544988;-68
2023/11/17 03:40:55;;;;;;;17.40;10.40;;;;;;;;;;104432;1283;545038;-70
2023/11/17 03:44:30;;;;;;;16.60;11.20;;;;;;;;;;103638;1291;544785;-69
2023/11/17 03:48:06;;;;;;;15.70;10.60;;;;;;;;;;103750;1289;545620;-70
2023/11/17 03:51:44;;;;;;;17.20;10.20;;;;;;;;;;104042;1285;544979;-71
2023/11/17 03:55:22;;;;;;;14.60;9.30;;;;;;;;;;103787;1289;547095;-68
2023/11/17 03:58:59;;;;;;;15.70;9.80;;;;;;;;;;103683;1289;545512;-70
2023/11/17 04:02:36;;;;;;;17.40;11.10;;;;;;;;;;103953;1286;545862;-70
2023/11/17 04:06:14;;;;;;;16.70;11.70;;;;;;;;;;103847;1292;544828;-68
2023/11/17 04:09:48;;;;;;;16.70;11.70;;;;;;;;;;104608;1283;545426;-69
2023/11/17 04:13:35;;;;;;;17.90;12.20;;;;;;;;;;103652;1289;544776;-70
2023/11/17 04:17:07;;;;;;;18.10;12.60;;;;;;;;;;103662;1292;545461;-70
2023/11/17 04:20:44;;;;;;;14.40;8.70;;;;;;;;;;103886;1288;544965;-67
2023/11/17 04:24:21;;;;;;;13.10;7.50;;;;;;;;;;103660;1290;544810;-68
2023/11/17 04:27:59;;;;;;;13.10;6.80;;;;;;;;;;103714;1292;545227;-67
2023/11/17 04:31:37;;;;;;;12.70;7.90;;;;;;;;;;103816;1289;545642;-68
2023/11/17 04:35:14;;;;;;;14.30;9.10;;;;;;;;;;103728;1292;545180;-71
2023/11/17 04:38:51;;;;;;;13.90;8.30;;;;;;;;;;104042;1293;545224;-69
2023/11/17 04:42:29;;;;;;;12.20;6.50;;;;;;;;;;103414;1295;545482;-70
2023/11/17 04:46:06;;;;;;;12.40;6.60;;;;;;;;;;103446;1298;544952;-72
2023/11/17 04:49:45;;;;;;;12.20;7.20;;;;;;;;;;103571;1296;545353;-69
2023/11/17 04:53:21;;;;;;;19.30;9.70;;;;;;;;;;103587;1292;544763;-70
2023/11/17 04:56:58;;;;;;;17.50;10.30;;;;;;;;;;103701;1292;544899;-71
2023/11/17 05:00:37;;;;;;;16.00;9.60;;;;;;;;;;103911;1295;544795;-69
2023/11/17 05:04:14;;;;;;;22.10;13.50;;;;;;;;;;103760;1289;544965;-69
2023/11/17 05:07:51;;;;;;;17.40;11.00;;;;;;;;;;103685;1289;545024;-70
2023/11/17 05:11:30;;;;;;;14.50;9.10;;;;;;;;;;103640;1291;545421;-68
2023/11/17 05:15:07;;;;;;;11.30;6.30;;;;;;;;;;103873;1295;545073;-71
2023/11/17 05:18:44;;;;;;;13.50;6.80;;;;;;;;;;103771;1289;545545;-70
2023/11/17 05:22:21;;;;;;;11.00;7.10;;;;;;;;;;103815;1289;545699;-69
2023/11/17 05:25:59;;;;;;;11.90;6.70;;;;;;;;;;103613;1295;546771;-71
2023/11/17 05:29:36;;;;;;;11.50;6.20;;;;;;;;;;103553;1295;544946;-71
2023/11/17 05:33:17;;;;;;;10.50;6.40;;;;;;;;;;103753;1292;545054;-70
2023/11/17 05:36:51;;;;;;;10.90;6.30;;;;;;;;;;103715;1292;544750;-70
2023/11/17 05:40:36;;;;;;;12.20;7.30;;;;;;;;;;103711;1289;544958;-70
2023/11/17 05:44:06;;;;;;;10.20;6.00;;;;;;;;;;103810;1294;545409;-71
2023/11/17 05:47:43;;;;;;;9.60;5.60;;;;;;;;;;103796;1290;545073;-72
2023/11/17 05:51:20;;;;;;;10.70;5.80;;;;;;;;;;103930;1288;545568;-69
2023/11/17 05:54:58;;;;;;;10.20;6.10;;;;;;;;;;103710;1291;544801;-70
2023/11/17 05:58:32;;;;;;;11.60;6.70;;;;;;;;;;103828;1289;544937;-69
2023/11/17 06:02:16;;;;;;;9.90;5.10;;;;;;;;;;103541;1291;545038;-70
2023/11/17 06:06:10;;;;;;;8.40;4.60;;;;;;;;;;104468;1292;547750;-71
2023/11/17 06:09:28;;;;;;;9.30;4.50;;;;;;;;;;103744;1289;546125;-69
2023/11/17 06:13:05;;;;;;;9.80;4.50;;;;;;;;;;103684;1289;545451;-69
2023/11/17 06:16:43;;;;;;;7.50;3.70;;;;;;;;;;103562;1297;544863;-70
2023/11/17 06:21:16;;;;;;;9.40;4.30;;;;;;;;;;103768;1289;545842;-70
2023/11/17 06:23:54;;;;;;;9.80;4.60;;;;;;;;;;103971;1289;544907;-70
2023/11/17 06:27:31;;;;;;;10.00;5.00;;;;;;;;;;103634;1289;544755;-71
2023/11/17 06:31:13;;;;;;;10.00;4.90;;;;;;;;;;103726;1292;544955;-70
2023/11/17 06:34:50;;;;;;;10.90;5.50;;;;;;;;;;103749;1290;545146;-71
2023/11/17 06:38:29;;;;;;;10.30;6.90;;;;;;;;;;103772;1289;544950;-71
2023/11/17 06:42:05;;;;;;;10.40;6.50;;;;;;;;;;104538;1283;545609;-70
2023/11/17 06:45:45;;;;;;;11.30;6.70;;;;;;;;;;103698;1292;545396;-73
2023/11/17 06:49:22;;;;;;;11.10;7.70;;;;;;;;;;103791;1289;544734;-70
2023/11/17 06:52:58;;;;;;;12.60;7.60;;;;;;;;;;103863;1289;545630;-70
2023/11/17 06:56:35;;;;;;;11.70;7.20;;;;;;;;;;103832;1289;544793;-71
2023/11/17 07:00:13;;;;;;;13.80;8.00;;;;;;;;;;103647;1291;545537;-72
2023/11/17 07:03:50;;;;;;;11.70;7.90;;;;;;;;;;103951;1289;544980;-70
2023/11/17 07:07:27;;;;;;;11.70;7.60;;;;;;;;;;103793;1295;546239;-71
2023/11/17 07:11:05;;;;;;;17.60;9.10;;;;;;;;;;103699;1289;544847;-70
2023/11/17 07:14:43;;;;;;;18.40;9.90;;;;;;;;;;103749;1292;545713;-70
2023/11/17 07:18:20;;;;;;;22.80;12.70;;;;;;;;;;103824;1289;545301;-70
2023/11/17 07:21:57;;;;;;;17.90;9.70;;;;;;;;;;103615;1295;545029;-70
2023/11/17 07:25:35;;;;;;;12.00;7.10;;;;;;;;;;103661;1290;544900;-71
2023/11/17 07:29:13;;;;;;;13.50;7.70;;;;;;;;;;104057;1286;545037;-70
2023/11/17 07:32:50;;;;;;;12.00;7.30;;;;;;;;;;103705;1291;545756;-69
2023/11/17 07:36:23;;;;;;;11.70;6.40;;;;;;;;;;103675;1292;545394;-73
2023/11/17 07:40:05;;;;;;;8.70;5.80;;;;;;;;;;104443;1283;544974;-70
2023/11/17 07:43:41;;;;;;;9.80;6.30;;;;;;;;;;103726;1291;545176;-68
2023/11/17 07:47:23;;;;;;;9.30;4.40;;;;;;;;;;103961;1292;545185;-70
2023/11/17 07:51:00;;;;;;;7.50;3.70;;;;;;;;;;103590;1291;545548;-71
2023/11/17 07:54:35;;;;;;;6.80;3.50;;;;;;;;;;103854;1288;544951;-69
2023/11/17 07:58:12;;;;;;;7.70;3.60;;;;;;;;;;103740;1290;546553;-71
2023/11/17 08:01:49;;;;;;;11.60;5.90;;;;;;;;;;103948;1288;545007;-71
2023/11/17 08:05:27;;;;;;;12.30;6.80;;;;;;;;;;103809;1294;545174;-69
2023/11/17 08:09:09;;;;;;;12.30;6.90;;;;;;;;;;103710;1292;545604;-69
2023/11/17 08:12:43;;;;;;;8.10;3.80;;;;;;;;;;104287;1286;545571;-69
2023/11/17 08:16:18;;;;;;;7.60;3.90;;;;;;;;;;103656;1289;544992;-70
2023/11/17 08:20:00;;;;;;;7.50;3.90;;;;;;;;;;104530;1283;545412;-68
2023/11/17 08:23:35;;;;;;;7.10;3.80;;;;;;;;;;103667;1290;545744;-69
2023/11/17 08:27:14;;;;;;;8.10;4.20;;;;;;;;;;103883;1300;545121;-71
2023/11/17 08:30:49;;;;;;;7.60;3.60;;;;;;;;;;103706;1295;544591;-69
2023/11/17 08:34:26;;;;;;;7.00;3.50;;;;;;;;;;103730;1289;544894;-72
2023/11/17 08:38:03;;;;;;;7.20;3.50;;;;;;;;;;103918;1290;544984;-72
2023/11/17 08:41:42;;;;;;;7.10;3.20;;;;;;;;;;103700;1292;545403;-71
2023/11/17 08:45:18;;;;;;;6.80;3.70;;;;;;;;;;104533;1282;546655;-71
2023/11/17 08:48:59;;;;;;;8.10;4.00;;;;;;;;;;103695;1289;545092;-72
2023/11/17 08:52:35;;;;;;;7.50;4.20;;;;;;;;;;104577;1283;545503;-71
2023/11/17 08:56:11;;;;;;;8.90;5.40;;;;;;;;;;103710;1292;544993;-70
2023/11/17 08:59:49;;;;;;;8.50;5.40;;;;;;;;;;103807;1292;544714;-69
2023/11/17 09:03:27;;;;;;;13.50;7.40;;;;;;;;;;103854;1290;545808;-73
2023/11/17 09:07:04;;;;;;;8.30;4.60;;;;;;;;;;103722;1292;545460;-70
2023/11/17 09:10:42;;;;;;;8.50;5.40;;;;;;;;;;103576;1297;544755;-71
2023/11/17 09:14:21;;;;;;;9.40;6.40;;;;;;;;;;103587;1295;545860;-70
2023/11/17 09:17:56;;;;;;;9.80;5.50;;;;;;;;;;103704;1294;545883;-69
2023/11/17 09:21:34;;;;;;;9.10;5.40;;;;;;;;;;103645;1291;544925;-70
2023/11/17 09:25:14;;;;;;;8.80;5.80;;;;;;;;;;103746;1293;544895;-70
2023/11/17 09:28:48;;;;;;;12.80;6.90;;;;;;;;;;103729;1289;545393;-70
2023/11/17 09:32:26;;;;;;;8.70;5.60;;;;;;;;;;103994;1289;545027;-69
2023/11/17 09:36:04;;;;;;;10.30;5.90;;;;;;;;;;103781;1289;545427;-69
2023/11/17 09:39:41;;;;;;;10.00;7.20;;;;;;;;;;103916;1288;544983;-69
2023/11/17 09:43:19;;;;;;;12.00;7.40;;;;;;;;;;103519;1298;544943;-70
2023/11/17 09:47:02;;;;;;;11.00;7.70;;;;;;;;;;103668;1295;544735;-72
2023/11/17 09:50:34;;;;;;;13.70;8.10;;;;;;;;;;103770;1291;546410;-71
2023/11/17 09:54:14;;;;;;;12.90;9.10;;;;;;;;;;103766;1288;545041;-69
2023/11/17 09:57:49;;;;;;;23.80;13.30;;;;;;;;;;103783;1292;545618;-72
2023/11/17 10:01:27;;;;;;;11.90;7.10;;;;;;;;;;103918;1288;545933;-71
2023/11/17 10:05:05;;;;;;;11.60;6.60;;;;;;;;;;103752;1292;544917;-71
2023/11/17 10:08:41;;;;;;;10.00;6.60;;;;;;;;;;103697;1292;545433;-70
2023/11/17 10:12:21;;;;;;;14.40;7.50;;;;;;;;;;103553;1289;544740;-71
2023/11/17 10:15:58;;;;;;;10.90;5.70;;;;;;;;;;103780;1291;545598;-71
2023/11/17 10:19:34;;;;;;;9.80;5.60;;;;;;;;;;103775;1289;545086;-72
2023/11/17 10:23:10;;;;;;;12.30;6.80;;;;;;;;;;103848;1290;544978;-72
2023/11/17 10:26:48;;;;;;;10.90;6.10;;;;;;;;;;103741;1290;545304;-70
2023/11/17 10:30:29;;;;;;;8.20;4.60;;;;;;;;;;103828;1290;545026;-71
2023/11/17 10:34:03;;;;;;;8.40;4.70;;;;;;;;;;103767;1291;545505;-70
2023/11/17 10:37:40;;;;;;;9.40;4.80;;;;;;;;;;103730;1291;544936;-72
2023/11/17 10:41:20;;;;;;;9.50;4.70;;;;;;;;;;103731;1295;544734;-70
2023/11/17 10:44:55;;;;;;;9.80;4.90;;;;;;;;;;103570;1293;545012;-70
2023/11/17 10:48:33;;;;;;;10.30;4.90;;;;;;;;;;103834;1289;544965;-71
2023/11/17 10:52:09;;;;;;;9.50;4.50;;;;;;;;;;103857;1289;544938;-70
2023/11/17 10:55:48;;;;;;;11.90;6.30;;;;;;;;;;103802;1290;544802;-70
2023/11/17 10:59:32;;;;;;;7.80;4.10;;;;;;;;;;103658;1292;545143;-69
2023/11/17 11:03:02;;;;;;;7.00;3.20;;;;;;;;;;103893;1289;545998;-72
2023/11/17 11:06:42;;;;;;;9.10;4.20;;;;;;;;;;103729;1291;544881;-69
2023/11/17 11:10:17;;;;;;;10.50;4.90;;;;;;;;;;103801;1290;545258;-70
2023/11/17 11:13:59;;;;;;;10.50;4.50;;;;;;;;;;103700;1292;545161;-70
2023/11/17 11:17:32;;;;;;;6.40;3.20;;;;;;;;;;103829;1295;544883;-71
2023/11/17 11:21:10;;;;;;;7.30;3.50;;;;;;;;;;103967;1289;544936;-72
2023/11/17 11:24:47;;;;;;;7.20;3.20;;;;;;;;;;103686;1294;545356;-71
2023/11/17 11:28:25;;;;;;;7.30;3.70;;;;;;;;;;103903;1289;545867;-70
2023/11/17 11:32:02;;;;;;;9.20;3.90;;;;;;;;;;103735;1291;546237;-70
2023/11/17 11:35:40;;;;;;;7.70;3.30;;;;;;;;;;103670;1289;544832;-70
2023/11/17 11:39:17;;;;;;;9.80;5.10;;;;;;;;;;103864;1291;545563;-71
2023/11/17 11:42:55;;;;;;;9.70;4.40;;;;;;;;;;103744;1291;545600;-71
2023/11/17 11:46:35;;;;;;;11.00;5.00;;;;;;;;;;103770;1289;544986;-71
2023/11/17 11:50:09;;;;;;;8.20;3.90;;;;;;;;;;104283;1283;545510;-72
2023/11/17 11:53:59;;;;;;;6.40;2.90;;;;;;;;;;103968;1289;545783;-70
2023/11/17 11:57:28;;;;;;;9.10;4.00;;;;;;;;;;104252;1291;544992;-72
2023/11/17 12:01:03;;;;;;;8.40;4.30;;;;;;;;;;104445;1283;545253;-71
2023/11/17 12:04:40;;;;;;;10.00;4.50;;;;;;;;;;103506;1295;545861;-72
2023/11/17 12:08:29;;;;;;;10.30;4.40;;;;;;;;;;103744;1292;545581;-72
2023/11/17 12:11:54;;;;;;;11.50;4.10;;;;;;;;;;103822;1289;545436;-72
2023/11/17 12:15:31;;;;;;;8.70;4.00;;;;;;;;;;104192;1285;545123;-72
2023/11/17 12:19:09;;;;;;;11.00;5.50;;;;;;;;;;103738;1304;544902;-71
2023/11/17 12:23:05;;;;;;;7.70;4.20;;;;;;;;;;104206;1286;544952;-72
2023/11/17 12:26:25;;;;;;;8.90;4.50;;;;;;;;;;103689;1290;545480;-71
2023/11/17 12:30:02;;;;;;;8.70;4.20;;;;;;;;;;103842;1289;544847;-70
2023/11/17 12:33:40;;;;;;;8.40;4.40;;;;;;;;;;103820;1292;545354;-71
2023/11/17 12:37:16;;;;;;;7.50;4.20;;;;;;;;;;103542;1292;545466;-70
2023/11/17 12:41:03;;;;;;;9.10;4.50;;;;;;;;;;103879;1292;544768;-70
2023/11/17 12:44:32;;;;;;;10.80;4.80;;;;;;;;;;103841;1289;544936;-70
2023/11/17 12:48:06;;;;;;;11.30;4.70;;;;;;;;;;103812;1291;545518;-70
2023/11/17 12:51:46;;;;;;;7.70;3.70;;;;;;;;;;104513;1286;544563;-70
2023/11/17 12:55:24;;;;;;;9.40;3.90;;;;;;;;;;103750;1289;544833;-70
2023/11/17 12:58:58;;;;;;;7.30;4.10;;;;;;;;;;103803;1302;545673;-71
2023/11/17 13:02:40;;;;;;;7.70;3.80;;;;;;;;;;103930;1289;545950;-69
2023/11/17 13:06:19;;;;;;;8.60;3.60;;;;;;;;;;103727;1289;545875;-71
2023/11/17 13:09:54;;;;;;;10.70;4.70;;;;;;;;;;104045;1289;544916;-70
2023/11/17 13:13:31;;;;;;;8.50;4.70;;;;;;;;;;104115;1286;545025;-72
2023/11/17 13:17:16;;;;;;;8.80;4.30;;;;;;;;;;103715;1292;544835;-70
2023/11/17 13:20:47;;;;;;;8.80;3.90;;;;;;;;;;103655;1292;545861;-69
2023/11/17 13:24:24;;;;;;;9.90;5.30;;;;;;;;;;103725;1289;544821;-70
2023/11/17 13:28:04;;;;;;;6.60;3.20;;;;;;;;;;104221;1296;545116;-74
2023/11/17 13:31:38;;;;;;;7.40;3.30;;;;;;;;;;103859;1292;545402;-71
2023/11/17 13:35:17;;;;;;;6.70;2.60;;;;;;;;;;103759;1292;545725;-73
2023/11/17 13:38:56;;;;;;;9.50;3.80;;;;;;;;;;103705;1292;545070;-71
2023/11/17 13:42:28;;;;;;;7.50;3.40;;;;;;;;;;103823;1288;544780;-71
2023/11/17 13:46:05;;;;;;;8.80;3.30;;;;;;;;;;103712;1290;545138;-72
2023/11/17 13:49:45;;;;;;;6.60;3.00;;;;;;;;;;103839;1288;545924;-70
2023/11/17 13:53:23;;;;;;;7.20;3.20;;;;;;;;;;103659;1290;546103;-70
2023/11/17 13:57:03;;;;;;;8.60;4.00;;;;;;;;;;103681;1289;545001;-70
2023/11/17 14:00:40;;;;;;;8.60;4.40;;;;;;;;;;103682;1292;545524;-71
2023/11/17 14:04:15;;;;;;;7.00;3.30;;;;;;;;;;103777;1290;544716;-70
2023/11/17 14:07:52;;;;;;;7.20;3.80;;;;;;;;;;103645;1291;545060;-71
2023/11/17 14:11:30;;;;;;;10.20;4.50;;;;;;;;;;103659;1292;544760;-72
2023/11/17 14:15:09;;;;;;;11.00;5.70;;;;;;;;;;103603;1292;545390;-71
2023/11/17 14:18:47;;;;;;;21.10;12.10;;;;;;;;;;103611;1289;544719;-69
2023/11/17 14:22:26;;;;;;;39.00;20.40;;;;;;;;;;103549;1293;544947;-71
2023/11/17 14:26:00;;;;;;;19.50;11.50;;;;;;;;;;103523;1291;545230;-71
2023/11/17 14:29:42;;;;;;;16.00;7.70;;;;;;;;;;103778;1289;544970;-72
2023/11/17 14:33:16;;;;;;;31.60;17.00;;;;;;;;;;103594;1289;545585;-73
2023/11/17 14:36:53;;;;;;;40.70;22.40;;;;;;;;;;103645;1291;544944;-71
2023/11/17 14:40:30;;;;;;;20.60;12.00;;;;;;;;;;103553;1289;544861;-72
2023/11/17 14:44:07;;;;;;;13.70;7.00;;;;;;;;;;103752;1288;544986;-71
2023/11/17 14:47:47;;;;;;;11.70;7.10;;;;;;;;;;103765;1293;544954;-72
2023/11/17 14:51:22;;;;;;;15.50;8.70;;;;;;;;;;103708;1295;545061;-71
2023/11/17 14:55:04;;;;;;;12.60;7.20;;;;;;;;;;103726;1291;545352;-72
2023/11/17 14:58:38;;;;;;;14.40;7.30;;;;;;;;;;103733;1290;545228;-71
2023/11/17 15:02:14;;;;;;;15.50;8.60;;;;;;;;;;104204;1285;544986;-70
2023/11/17 15:05:52;;;;;;;13.10;7.50;;;;;;;;;;103765;1295;544804;-71
2023/11/17 15:09:33;;;;;;;12.30;7.70;;;;;;;;;;103812;1289;544970;-70
2023/11/17 15:13:07;;;;;;;14.70;9.20;;;;;;;;;;103736;1290;545065;-72
2023/11/17 15:16:46;;;;;;;14.10;9.20;;;;;;;;;;103633;1292;544895;-70
2023/11/17 15:20:28;;;;;;;12.90;6.70;;;;;;;;;;103609;1291;545019;-71
2023/11/17 15:24:00;;;;;;;17.10;10.20;;;;;;;;;;103708;1289;544812;-72
2023/11/17 15:27:39;;;;;;;16.00;9.60;;;;;;;;;;103939;1292;544729;-73
2023/11/17 15:31:21;;;;;;;12.60;7.10;;;;;;;;;;103734;1289;545440;-72
2023/11/17 15:34:53;;;;;;;24.50;15.20;;;;;;;;;;103802;1289;545570;-72
2023/11/17 15:38:30;;;;;;;18.20;11.80;;;;;;;;;;103792;1295;545267;-70
2023/11/17 15:42:03;;;;;;;13.10;9.20;;;;;;;;;;104202;1286;545772;-71
2023/11/17 15:45:44;;;;;;;32.90;16.70;;;;;;;;;;103584;1295;544738;-72
2023/11/17 15:49:24;;;;;;;24.00;12.60;;;;;;;;;;103730;1289;545008;-71
2023/11/17 15:52:59;;;;;;;16.00;9.30;;;;;;;;;;103857;1289;545943;-71
2023/11/17 15:56:40;;;;;;;16.70;8.90;;;;;;;;;;103723;1291;545698;-70
2023/11/17 16:00:35;;;;;;;20.60;10.60;;;;;;;;;;103669;1292;547963;-73
2023/11/17 16:03:53;;;;;;;100.70;44.10;;;;;;;;;;103757;1291;545692;-71
2023/11/17 16:07:30;;;;;;;31.00;15.20;;;;;;;;;;103883;1290;544986;-71
2023/11/17 16:11:11;;;;;;;17.30;8.70;;;;;;;;;;103784;1291;544864;-72
2023/11/17 16:14:45;;;;;;;21.90;11.30;;;;;;;;;;103622;1291;545062;-71
2023/11/17 16:18:23;;;;;;;14.40;7.60;;;;;;;;;;103462;1294;545068;-71
2023/11/17 16:21:59;;;;;;;9.50;5.10;;;;;;;;;;103792;1288;546259;-73
2023/11/17 16:25:33;;;;;;;10.20;5.60;;;;;;;;;;103858;1288;544900;-72
2023/11/17 16:29:14;;;;;;;7.60;4.20;;;;;;;;;;104222;1298;545030;-73
2023/11/17 16:32:54;;;;;;;9.60;5.40;;;;;;;;;;103727;1289;544973;-72
2023/11/17 16:36:29;;;;;;;9.80;4.90;;;;;;;;;;103800;1293;545578;-70
2023/11/17 16:40:04;;;;;;;13.40;7.50;;;;;;;;;;103614;1289;544828;-72
2023/11/17 16:43:44;;;;;;;11.80;6.60;;;;;;;;;;104732;1288;544691;-71
2023/11/17 16:47:40;;;;;;;11.90;7.60;;;;;;;;;;103876;1292;547816;-72
2023/11/17 16:51:00;;;;;;;12.50;7.10;;;;;;;;;;103644;1294;544880;-72
2023/11/17 16:54:37;;;;;;;12.00;7.00;;;;;;;;;;103565;1293;544774;-71
2023/11/17 16:58:14;;;;;;;13.20;8.50;;;;;;;;;;103350;1298;545401;-72
2023/11/17 17:01:47;;;;;;;10.10;5.80;;;;;;;;;;103799;1289;545554;-71
2023/11/17 17:05:29;;;;;;;8.50;5.00;;;;;;;;;;103496;1293;545063;-73
2023/11/17 17:09:09;;;;;;;9.40;6.20;;;;;;;;;;103678;1292;544946;-72
2023/11/17 17:12:44;;;;;;;8.30;5.30;;;;;;;;;;103866;1292;545670;-71
2023/11/17 17:16:23;;;;;;;10.10;5.60;;;;;;;;;;103701;1292;544822;-72
2023/11/17 17:19:59;;;;;;;8.30;4.50;;;;;;;;;;104104;1291;545214;-71
2023/11/17 17:23:36;;;;;;;6.40;3.60;;;;;;;;;;103709;1290;545208;-70
2023/11/17 17:27:14;;;;;;;12.90;9.10;;;;;;;;;;103559;1294;545029;-70
2023/11/17 17:30:52;;;;;;;24.50;19.90;;;;;;;;;;104069;1288;545562;-73
2023/11/17 17:34:45;;;;;;;;;;;;;;;;;;;;;
2023/11/17 17:38:02;;;;;;;43.60;18.80;;;;;;;;;;104571;1286;545745;-72
2023/11/17 17:41:47;;;;;;;49.00;17.80;;;;;;;;;;103808;1294;544932;-71
2023/11/17 17:45:26;;;;;;;57.80;19.70;;;;;;;;;;103783;1289;545596;-73
2023/11/17 17:48:59;;;;;;;27.50;10.50;;;;;;;;;;103776;1289;544924;-72
2023/11/17 17:52:38;;;;;;;27.20;9.60;;;;;;;;;;104044;1289;545384;-72
2023/11/17 17:56:13;;;;;;;71.30;22.80;;;;;;;;;;103754;1296;545926;-71
2023/11/17 17:59:47;;;;;;;30.80;12.40;;;;;;;;;;104042;1289;545616;-72
2023/11/17 18:03:29;;;;;;;20.10;8.50;;;;;;;;;;104058;1292;545341;-71
2023/11/17 18:07:06;;;;;;;39.30;18.00;;;;;;;;;;103774;1295;545043;-71
2023/11/17 18:10:45;;;;;;;96.70;37.80;;;;;;;;;;103796;1296;545182;-70
2023/11/17 18:14:24;;;;;;;23.50;10.50;;;;;;;;;;103477;1294;545514;-70
2023/11/17 18:17:58;;;;;;;13.30;6.40;;;;;;;;;;103724;1289;545817;-71
2023/11/17 18:21:35;;;;;;;13.90;7.00;;;;;;;;;;103841;1292;544779;-71
2023/11/17 18:25:15;;;;;;;10.80;4.70;;;;;;;;;;103788;1290;545722;-71
2023/11/17 18:28:52;;;;;;;9.00;3.90;;;;;;;;;;103792;1293;545892;-69
2023/11/17 18:32:24;;;;;;;10.20;4.20;;;;;;;;;;104551;1282;545153;-70
2023/11/17 18:36:03;;;;;;;8.20;4.10;;;;;;;;;;103953;1292;544810;-70
2023/11/17 18:39:43;;;;;;;10.00;4.80;;;;;;;;;;103633;1291;545015;-71
2023/11/17 18:43:20;;;;;;;9.70;3.50;;;;;;;;;;103854;1289;544983;-71
2023/11/17 18:46:56;;;;;;;8.90;3.20;;;;;;;;;;103775;1300;545310;-70
2023/11/17 18:50:36;;;;;;;9.60;4.10;;;;;;;;;;104071;1286;544781;-74
2023/11/17 18:54:12;;;;;;;9.50;4.10;;;;;;;;;;103753;1292;544765;-70
2023/11/17 18:58:10;;;;;;;12.10;5.20;;;;;;;;;;103749;1292;546684;-73
2023/11/17 19:01:31;;;;;;;11.20;5.30;;;;;;;;;;103806;1289;545195;-70
2023/11/17 19:05:09;;;;;;;13.90;7.20;;;;;;;;;;103731;1292;545147;-73
2023/11/17 19:08:38;;;;;;;13.10;6.10;;;;;;;;;;103624;1288;545534;-73
2023/11/17 19:12:20;;;;;;;28.20;12.40;;;;;;;;;;104326;1283;545471;-71
2023/11/17 19:15:58;;;;;;;12.10;5.80;;;;;;;;;;103622;1293;544730;-70
2023/11/17 19:19:37;;;;;;;10.50;5.10;;;;;;;;;;104192;1292;545160;-71
2023/11/17 19:23:12;;;;;;;15.90;7.00;;;;;;;;;;103704;1293;545323;-69
2023/11/17 19:27:05;;;;;;;16.40;8.00;;;;;;;;;;103745;1291;545054;-71
2023/11/17 19:30:27;;;;;;;21.00;9.90;;;;;;;;;;103743;1290;545146;-71
2023/11/17 19:34:01;;;;;;;14.20;6.00;;;;;;;;;;103798;1295;545658;-71
2023/11/17 19:37:44;;;;;;;11.90;5.40;;;;;;;;;;103682;1295;544948;-71
2023/11/17 19:41:20;;;;;;;9.10;4.60;;;;;;;;;;103715;1289;545409;-70
2023/11/17 19:45:00;;;;;;;27.50;12.50;;;;;;;;;;103731;1290;546220;-71
2023/11/17 19:48:37;;;;;;;14.50;6.70;;;;;;;;;;103607;1305;545445;-72
2023/11/17 19:52:12;;;;;;;23.70;9.50;;;;;;;;;;103723;1292;544906;-70
2023/11/17 19:55:52;;;;;;;22.40;9.40;;;;;;;;;;103458;1294;545011;-72
2023/11/17 19:59:27;;;;;;;22.30;10.40;;;;;;;;;;103735;1289;545076;-71
2023/11/17 20:03:07;;;;;;;23.80;12.70;;;;;;;;;;103713;1291;544738;-71
2023/11/17 20:06:43;;;;;;;24.90;11.20;;;;;;;;;;103729;1292;545729;-73
2023/11/17 20:10:20;;;;;;;21.00;9.60;;;;;;;;;;103850;1289;545059;-72
2023/11/17 20:14:03;;;;;;;15.10;7.20;;;;;;;;;;104153;1286;544946;-71
2023/11/17 20:17:43;;;;;;;15.00;7.60;;;;;;;;;;103646;1292;545671;-72
2023/11/17 20:21:12;;;;;;;29.40;17.20;;;;;;;;;;103986;1289;545327;-72
2023/11/17 20:24:52;;;;;;;20.60;12.00;;;;;;;;;;103715;1289;545057;-70
2023/11/17 20:28:52;;;;;;;19.70;10.60;;;;;;;;;;104023;1292;548008;-72
2023/11/17 20:32:01;;;;;;;28.30;15.30;;;;;;;;;;103926;1288;545708;-70
2023/11/17 20:35:46;;;;;;;20.30;9.70;;;;;;;;;;103540;1294;545356;-69
2023/11/17 20:39:22;;;;;;;13.70;6.80;;;;;;;;;;103995;1289;546269;-71
2023/11/17 20:42:57;;;;;;;21.30;9.00;;;;;;;;;;103934;1289;545796;-72
2023/11/17 20:46:36;;;;;;;13.80;10.00;;;;;;;;;;103951;1291;544696;-72
2023/11/17 20:50:19;;;;;;;11.70;6.50;;;;;;;;;;104078;1286;545569;-71